Time;durP1;ratioP1;P1;durP2;ratioP2;P2;SDS_P1;SDS_P2;PMS_P1;PMS_P2;Temp;Humidity;BMP_temperature;BMP_pressure;BME280_temperature;BME280_humidity;BME280_pressure;Samples;Min_cycle;Max_cycle;Signal;HPM_P1;HPM_P2
2022/08/02 00:02:18;;;;;;;7.78;2.30;;;;;;;15.97;60.39;101798.69;5004899;28;20021;-79
2022/08/02 00:04:44;;;;;;;5.50;2.33;;;;;;;15.92;60.29;101787.63;5006133;28;20121;-80
2022/08/02 00:07:09;;;;;;;4.97;1.98;;;;;;;15.92;61.58;101798.25;5000976;28;20140;-79
2022/08/02 00:09:35;;;;;;;4.13;1.77;;;;;;;15.92;60.81;101787.63;4998074;28;20109;-80
2022/08/02 00:12:00;;;;;;;6.80;1.80;;;;;;;15.89;60.64;101778.09;5008989;28;20046;-79
2022/08/02 00:14:25;;;;;;;7.93;1.98;;;;;;;15.93;60.09;101778.69;4997772;28;20054;-79
2022/08/02 00:16:51;;;;;;;5.93;1.83;;;;;;;15.95;59.96;101772.28;4995603;28;20468;-79
2022/08/02 00:19:16;;;;;;;3.78;1.75;;;;;;;15.96;60.23;101779.28;5003778;28;20021;-79
2022/08/02 00:21:41;;;;;;;5.45;1.80;;;;;;;15.95;60.21;101784.72;5004697;28;20360;-80
2022/08/02 00:24:07;;;;;;;4.53;1.77;;;;;;;15.99;60.86;101778.19;5009661;28;20373;-80
2022/08/02 00:26:32;;;;;;;3.58;1.80;;;;;;;15.97;59.87;101780.97;5001604;28;20034;-79
2022/08/02 00:28:58;;;;;;;4.10;1.90;;;;;;;15.95;60.32;101790.03;5005484;28;20057;-79
2022/08/02 00:31:23;;;;;;;4.82;1.55;;;;;;;15.98;61.46;101792.41;5001486;28;20081;-79
2022/08/02 00:33:48;;;;;;;3.08;1.73;;;;;;;15.98;60.12;101793.25;4995020;28;20041;-79
2022/08/02 00:36:14;;;;;;;4.18;1.88;;;;;;;16.02;58.29;101787.72;4997529;28;20022;-79
2022/08/02 00:38:40;;;;;;;3.72;1.73;;;;;;;16.05;58.60;101798.94;5001797;28;20492;-79
2022/08/02 00:41:12;;;;;;;6.47;2.13;;;;;;;16.08;58.10;101797.84;5000651;28;20026;-79
2022/08/02 00:43:37;;;;;;;3.65;1.55;;;;;;;16.06;57.54;101787.34;5009216;28;20123;-79
2022/08/02 00:46:02;;;;;;;3.47;1.58;;;;;;;16.09;57.05;101786.25;5008247;28;20473;-79
2022/08/02 00:48:28;;;;;;;3.85;1.70;;;;;;;16.11;57.21;101793.13;5008683;28;20476;-79
2022/08/02 00:50:53;;;;;;;4.53;1.60;;;;;;;16.09;57.36;101779.13;5008329;28;20033;-79
2022/08/02 00:53:18;;;;;;;3.40;1.60;;;;;;;16.10;57.19;101775.50;4997463;28;20045;-79
2022/08/02 00:55:44;;;;;;;5.80;1.40;;;;;;;16.09;57.92;101772.97;4992171;28;20030;-79
2022/08/02 00:58:09;;;;;;;3.15;1.30;;;;;;;16.12;57.02;101762.94;5005401;28;20451;-79
2022/08/02 01:00:35;;;;;;;3.65;1.25;;;;;;;16.13;57.50;101764.63;4990859;28;20022;-79
2022/08/02 01:03:00;;;;;;;4.53;1.77;;;;;;;16.15;57.15;101757.38;4992037;28;20731;-80
2022/08/02 01:05:25;;;;;;;4.13;1.50;;;;;;;16.16;57.30;101756.41;4998314;28;20523;-79
2022/08/02 01:07:51;;;;;;;5.72;1.63;;;;;;;16.19;57.53;101757.97;5000637;28;20022;-79
2022/08/02 01:10:16;;;;;;;8.32;1.83;;;;;;;16.14;57.58;101745.06;5005079;28;20036;-79
2022/08/02 01:12:41;;;;;;;4.10;1.55;;;;;;;16.15;57.51;101760.03;4999654;28;20458;-79
2022/08/02 01:15:11;;;;;;;6.10;1.60;;;;;;;16.19;57.49;101764.13;5007488;28;20040;-80
2022/08/02 01:17:53;;;;;;;6.80;1.70;;;;;;;16.21;57.27;101766.66;4994622;28;20034;-80
2022/08/02 01:20:43;;;;;;;5.97;1.88;;;;;;;16.14;57.63;101766.31;4999763;28;20046;-78
2022/08/02 01:23:27;;;;;;;5.05;1.80;;;;;;;16.18;57.98;101773.06;4997332;28;20055;-79
2022/08/02 01:26:26;;;;;;;5.05;1.70;;;;;;;16.20;58.12;101771.13;4999906;28;20021;-80
2022/08/02 01:29:03;;;;;;;7.38;1.88;;;;;;;16.21;57.58;101767.50;5000353;28;20163;-80
2022/08/02 01:31:33;;;;;;;4.70;1.80;;;;;;;16.23;58.02;101762.91;4994419;28;20731;-79
2022/08/02 01:34:04;;;;;;;4.72;1.67;;;;;;;16.22;57.71;101763.88;4998563;28;20037;-79
2022/08/02 01:36:36;;;;;;;7.13;2.00;;;;;;;16.24;58.00;101761.94;5008048;28;20117;-79
2022/08/02 01:39:04;;;;;;;7.40;1.90;;;;;;;16.24;58.25;101763.75;4988856;28;20030;-79
2022/08/02 01:41:32;;;;;;;4.03;1.70;;;;;;;16.23;59.47;101757.59;4995195;28;20465;-79
2022/08/02 01:43:59;;;;;;;7.57;1.80;;;;;;;16.19;58.22;101753.50;5004306;28;20033;-80
2022/08/02 01:46:26;;;;;;;4.20;1.50;;;;;;;16.22;58.48;101758.56;4995471;28;20030;-79
2022/08/02 01:48:55;;;;;;;7.70;1.80;;;;;;;16.18;58.78;101753.63;4991965;28;20033;-80
2022/08/02 01:52:20;;;;;;;7.60;1.83;;;;;;;16.13;59.27;101748.72;4989800;28;20022;-79
2022/08/02 01:54:13;;;;;;;6.50;1.90;;;;;;;16.08;59.06;101748.25;4995320;28;20042;-80
2022/08/02 01:56:40;;;;;;;6.78;1.70;;;;;;;16.09;59.51;101743.78;4992066;28;20539;-80
2022/08/02 01:59:12;;;;;;;4.53;1.80;;;;;;;16.08;59.34;101744.75;4991451;28;20034;-79
2022/08/02 02:01:40;;;;;;;5.68;2.03;;;;;;;16.08;59.75;101732.31;4994643;28;20072;-80
2022/08/02 02:04:07;;;;;;;5.82;1.77;;;;;;;16.12;59.96;101736.41;4998663;28;20022;-79
2022/08/02 02:06:34;;;;;;;8.50;1.77;;;;;;;16.12;59.93;101736.41;4991381;28;20069;-79
2022/08/02 02:09:01;;;;;;;6.38;1.80;;;;;;;16.15;60.33;101730.84;4992024;28;20142;-79
2022/08/02 02:11:26;;;;;;;5.97;2.05;;;;;;;16.16;60.55;101731.66;4990409;28;20098;-79
2022/08/02 02:13:52;;;;;;;6.38;2.05;;;;;;;16.12;60.93;101722.28;4988839;28;20113;-79
2022/08/02 02:16:21;;;;;;;6.55;1.90;;;;;;;16.15;61.11;101724.69;4990057;28;20019;-79
2022/08/02 02:18:49;;;;;;;4.63;1.90;;;;;;;16.09;61.75;101726.03;4993334;28;20030;-79
2022/08/02 02:21:15;;;;;;;7.15;1.95;;;;;;;16.11;61.71;101713.47;4996275;28;20030;-79
2022/08/02 02:23:42;;;;;;;7.30;1.98;;;;;;;16.08;62.59;101712.88;5001899;28;20108;-80
2022/08/02 02:26:12;;;;;;;6.20;1.90;;;;;;;16.07;61.97;101717.34;4992159;28;20022;-79
2022/08/02 02:28:38;;;;;;;5.97;1.80;;;;;;;16.08;61.82;101700.47;5003099;28;20041;-79
2022/08/02 02:31:07;;;;;;;5.18;1.85;;;;;;;16.04;62.50;101711.47;5001599;28;20027;-80
2022/08/02 02:33:36;;;;;;;6.65;1.60;;;;;;;16.03;62.96;101705.31;4989601;28;20122;-79
2022/08/02 02:36:03;;;;;;;5.45;1.95;;;;;;;15.94;63.47;101703.41;5005374;28;20095;-79
2022/08/02 02:38:31;;;;;;;4.95;1.70;;;;;;;15.94;64.11;101703.41;5004016;28;20623;-79
2022/08/02 02:41:00;;;;;;;5.82;1.98;;;;;;;15.88;64.58;101706.56;4998244;28;20060;-79
2022/08/02 02:43:31;;;;;;;6.55;1.90;;;;;;;15.85;64.30;101712.13;5008108;28;20029;-79
2022/08/02 02:45:57;;;;;;;6.20;1.95;;;;;;;15.81;64.76;101710.69;5008016;28;20109;-79
2022/08/02 02:48:25;;;;;;;5.55;1.80;;;;;;;15.72;64.81;101706.16;4993716;28;20048;-80
2022/08/02 02:50:53;;;;;;;8.20;2.05;;;;;;;15.72;64.85;101711.47;5008181;28;20025;-80
2022/08/02 02:53:19;;;;;;;6.45;2.17;;;;;;;15.62;65.03;101704.25;5004805;28;20022;-79
2022/08/02 02:55:45;;;;;;;3.67;1.65;;;;;;;15.67;65.68;101706.53;5001883;28;20022;-79
2022/08/02 02:58:12;;;;;;;5.82;1.67;;;;;;;15.64;65.19;101714.75;4992307;28;20053;-80
2022/08/02 03:03:23;;;;;;;12.07;2.15;;;;;;;15.54;65.40;101711.94;4997698;28;20411;-80
2022/08/02 03:05:49;;;;;;;9.80;2.30;;;;;;;15.44;66.04;101696.91;4996348;28;20399;-79
2022/08/02 03:08:14;;;;;;;14.77;2.45;;;;;;;15.44;65.77;101692.44;5005786;28;20026;-80
2022/08/02 03:10:42;;;;;;;8.30;2.00;;;;;;;15.42;65.54;101698.84;4995361;28;20084;-79
2022/08/02 03:13:11;;;;;;;14.05;2.90;;;;;;;15.40;65.24;101696.31;4994847;28;20022;-80
2022/08/02 03:15:37;;;;;;;11.15;2.45;;;;;;;15.40;65.59;101695.47;5004349;28;20120;-80
2022/08/02 03:18:02;;;;;;;12.32;2.40;;;;;;;15.39;65.59;101693.78;5003093;28;20025;-80
2022/08/02 03:20:28;;;;;;;9.70;2.60;;;;;;;15.41;65.95;101692.69;5002935;28;20026;-79
2022/08/02 03:22:53;;;;;;;9.52;2.60;;;;;;;15.38;65.65;101692.94;4990010;28;20018;-79
2022/08/02 03:25:19;;;;;;;8.45;2.28;;;;;;;15.36;65.53;101694.88;4988551;28;20113;-79
2022/08/02 03:27:45;;;;;;;6.68;2.63;;;;;;;15.36;65.75;101701.00;4999530;28;20054;-79
2022/08/02 03:30:12;;;;;;;7.18;2.60;;;;;;;15.35;65.99;101703.78;4998908;28;20030;-80
2022/08/02 03:32:40;;;;;;;8.77;3.00;;;;;;;15.34;66.09;101710.06;4996135;28;20420;-80
2022/08/02 03:35:11;;;;;;;6.72;2.72;;;;;;;15.34;66.02;101708.25;5007321;28;20024;-79
2022/08/02 03:37:37;;;;;;;7.75;2.60;;;;;;;15.38;65.99;101698.25;5007924;28;20117;-79
2022/08/02 03:40:07;;;;;;;5.75;2.55;;;;;;;15.34;66.33;101691.50;5014558;28;20026;-80
2022/08/02 03:42:32;;;;;;;10.52;2.95;;;;;;;15.34;66.49;101681.75;5004255;28;20042;-80
2022/08/02 03:44:59;;;;;;;7.40;3.00;;;;;;;15.34;66.74;101688.84;5008812;28;20341;-79
2022/08/02 03:47:25;;;;;;;6.68;3.00;;;;;;;15.33;66.94;101679.22;5016742;28;20033;-80
2022/08/02 03:49:50;;;;;;;5.88;2.60;;;;;;;15.28;66.86;101681.41;5018508;28;20037;-80
2022/08/02 03:52:16;;;;;;;8.23;3.33;;;;;;;15.30;67.08;101679.47;5017013;28;20026;-79
2022/08/02 03:54:42;;;;;;;8.38;3.17;;;;;;;15.27;67.14;101674.41;5006123;28;20094;-79
2022/08/02 03:57:12;;;;;;;10.48;3.13;;;;;;;15.21;67.51;101670.44;5007166;28;20032;-79
2022/08/02 03:59:42;;;;;;;6.63;3.20;;;;;;;15.26;67.33;101672.72;5010870;28;20030;-79
2022/08/02 04:02:07;;;;;;;11.35;3.58;;;;;;;15.30;67.94;101669.69;5004476;28;20121;-79
2022/08/02 04:04:33;;;;;;;8.85;3.80;;;;;;;15.26;67.91;101675.38;5009800;28;20519;-79
2022/08/02 04:06:58;;;;;;;10.05;3.42;;;;;;;15.30;67.93;101668.84;5011428;28;20025;-79
2022/08/02 04:09:23;;;;;;;11.30;3.22;;;;;;;15.28;68.24;101658.38;5011430;28;20029;-80
2022/08/02 04:11:49;;;;;;;13.32;3.50;;;;;;;15.34;68.12;101657.03;5010881;28;20030;-79
2022/08/02 04:14:14;;;;;;;12.95;3.50;;;;;;;15.33;68.22;101663.31;4999869;28;20072;-79
2022/08/02 04:16:43;;;;;;;9.02;3.40;;;;;;;15.34;68.54;101664.97;5011257;28;20041;-79
2022/08/02 04:19:27;;;;;;;10.07;3.65;;;;;;;15.41;67.98;101655.56;5006235;28;20032;-80
2022/08/02 04:21:54;;;;;;;8.05;3.55;;;;;;;15.41;68.38;101658.22;5011575;28;20026;-80
2022/08/02 04:24:27;;;;;;;10.05;3.47;;;;;;;15.42;68.79;101654.59;5011148;28;20023;-80
2022/08/02 04:26:54;;;;;;;7.90;3.78;;;;;;;15.40;68.87;101664.47;5010593;28;20388;-80
2022/08/02 04:29:21;;;;;;;8.48;3.30;;;;;;;15.41;69.16;101666.16;5007035;28;20052;-79
2022/08/02 04:31:47;;;;;;;7.88;3.53;;;;;;;15.40;69.18;101664.47;5018291;28;20018;-80
2022/08/02 04:34:12;;;;;;;6.65;3.55;;;;;;;15.42;69.36;101667.84;5004889;28;20041;-80
2022/08/02 04:36:39;;;;;;;5.70;3.35;;;;;;;15.46;69.38;101671.94;5001818;28;20026;-80
2022/08/02 04:39:05;;;;;;;9.48;3.80;;;;;;;15.49;69.50;101668.19;5001047;28;20057;-79
2022/08/02 04:41:43;;;;;;;8.88;3.75;;;;;;;15.53;69.25;101675.78;4999660;28;20496;-80
2022/08/02 04:44:11;;;;;;;6.07;3.60;;;;;;;15.53;70.10;101681.06;5000485;28;20026;-80
2022/08/02 04:46:38;;;;;;;9.60;4.00;;;;;;;15.54;70.39;101676.59;5005431;28;20377;-80
2022/08/02 04:49:04;;;;;;;10.57;3.70;;;;;;;15.56;70.43;101672.88;5004326;28;20030;-80
2022/08/02 04:51:29;;;;;;;8.70;4.10;;;;;;;15.59;70.61;101664.69;5002728;28;20417;-80
2022/08/02 04:53:54;;;;;;;6.20;3.50;;;;;;;15.61;71.09;101665.44;4998528;28;20032;-80
2022/08/02 04:56:20;;;;;;;11.65;4.10;;;;;;;15.59;71.45;101664.69;4992680;28;20026;-80
2022/08/02 04:58:45;;;;;;;13.85;4.20;;;;;;;15.60;71.69;101654.91;4993355;28;20403;-80
2022/08/02 05:01:10;;;;;;;6.20;4.25;;;;;;;15.59;71.81;101659.38;5006204;28;20021;-79
2022/08/02 05:03:36;;;;;;;13.80;4.60;;;;;;;15.61;72.22;101657.47;4999697;28;20031;-79
2022/08/02 05:06:01;;;;;;;9.57;4.72;;;;;;;15.66;72.32;101657.94;5001195;28;20022;-80
2022/08/02 05:08:27;;;;;;;12.90;4.82;;;;;;;15.70;72.52;101655.03;5004299;28;20026;-79
2022/08/02 05:10:59;;;;;;;13.32;5.30;;;;;;;15.70;72.94;101661.16;5001897;28;20022;-78
2022/08/02 05:13:24;;;;;;;12.95;5.47;;;;;;;15.74;73.43;101659.09;5003723;28;20026;-79
2022/08/02 05:15:50;;;;;;;12.60;4.93;;;;;;;15.80;73.62;101663.91;5000345;28;20037;-79
2022/08/02 05:18:15;;;;;;;9.02;5.13;;;;;;;15.83;73.60;101656.53;5007752;28;20485;-79
2022/08/02 05:20:41;;;;;;;9.13;4.85;;;;;;;15.90;74.07;101656.84;5006242;28;20408;-79
2022/08/02 05:23:06;;;;;;;11.30;5.35;;;;;;;15.92;74.40;101655.75;4997614;28;20364;-79
2022/08/02 05:25:31;;;;;;;10.00;5.88;;;;;;;16.01;74.62;101638.22;4995031;28;20249;-79
2022/08/02 05:27:57;;;;;;;11.18;5.80;;;;;;;16.07;74.55;101643.03;4996577;28;20054;-79
2022/08/02 05:30:22;;;;;;;9.73;5.65;;;;;;;16.11;74.77;101639.13;5002362;28;20041;-78
2022/08/02 05:32:51;;;;;;;9.18;5.95;;;;;;;16.15;75.12;101635.25;4996637;28;20041;-79
2022/08/02 05:35:20;;;;;;;11.18;5.88;;;;;;;16.22;75.08;101630.25;4993621;28;20029;-78
2022/08/02 05:37:46;;;;;;;9.02;6.50;;;;;;;16.27;75.18;101636.00;4993906;28;20022;-78
2022/08/02 05:40:13;;;;;;;9.70;6.40;;;;;;;16.33;75.19;101642.59;4993597;28;20022;-78
2022/08/02 05:42:41;;;;;;;12.55;6.25;;;;;;;16.38;75.41;101635.91;5007075;28;20041;-78
2022/08/02 05:45:07;;;;;;;10.18;5.82;;;;;;;16.51;75.31;101633.06;4996618;28;20037;-78
2022/08/02 05:47:33;;;;;;;9.75;6.07;;;;;;;16.58;75.55;101642.19;5006710;28;20025;-78
2022/08/02 05:49:58;;;;;;;8.88;6.00;;;;;;;16.65;75.57;101643.34;4996327;28;20492;-78
2022/08/02 05:52:28;;;;;;;11.10;6.70;;;;;;;16.73;75.78;101643.53;5001351;28;20028;-79
2022/08/02 05:55:03;;;;;;;13.65;6.60;;;;;;;16.85;75.58;101646.97;5000008;28;20030;-78
2022/08/02 05:57:47;;;;;;;11.32;6.03;;;;;;;16.94;75.60;101653.28;4996283;28;20411;-78
2022/08/02 06:00:14;;;;;;;11.18;6.57;;;;;;;17.09;75.65;101657.22;4992264;28;20436;-78
2022/08/02 06:02:48;;;;;;;11.82;6.75;;;;;;;17.12;75.55;101662.28;5000004;28;20373;-78
2022/08/02 06:05:19;;;;;;;7.80;6.35;;;;;;;17.23;75.13;101671.00;4994714;28;20117;-79
2022/08/02 06:07:46;;;;;;;11.35;6.72;;;;;;;17.27;75.61;101668.06;5003950;28;20040;-79
2022/08/02 06:10:13;;;;;;;9.88;6.95;;;;;;;17.35;75.36;101669.06;4995386;28;20030;-79
2022/08/02 06:13:00;;;;;;;11.38;7.10;;;;;;;17.43;74.86;101669.22;4989166;28;20023;-78
2022/08/02 06:15:26;;;;;;;11.90;6.65;;;;;;;17.48;75.17;101672.28;4994320;28;20053;-78
2022/08/02 06:17:51;;;;;;;11.38;6.88;;;;;;;17.58;75.37;101672.31;5004986;28;20036;-78
2022/08/02 06:20:19;;;;;;;9.35;6.63;;;;;;;17.64;74.94;101673.59;5004092;28;20021;-79
2022/08/02 06:22:44;;;;;;;13.75;7.40;;;;;;;17.65;75.23;101675.28;5004170;28;20053;-78
2022/08/02 06:25:12;;;;;;;10.18;6.90;;;;;;;17.69;75.43;101674.88;4989588;28;20064;-77
2022/08/02 06:27:39;;;;;;;13.65;7.20;;;;;;;17.69;75.68;101666.06;4996395;28;20566;-78
2022/08/02 06:30:06;;;;;;;12.00;7.65;;;;;;;17.76;75.40;101661.84;4999495;28;20042;-77
2022/08/02 06:32:33;;;;;;;13.68;7.93;;;;;;;17.85;75.42;101658.34;5000357;28;20045;-77
2022/08/02 06:34:59;;;;;;;11.13;7.07;;;;;;;17.90;75.54;101649.94;4993271;28;20030;-77
2022/08/02 06:37:43;;;;;;;11.82;7.30;;;;;;;17.95;74.99;101656.50;5004885;28;20025;-79
2022/08/02 06:40:52;;;;;;;10.93;7.30;;;;;;;18.05;74.79;101656.53;4999780;28;20029;-79
2022/08/02 06:43:27;;;;;;;10.30;8.55;;;;;;;18.10;75.10;101649.78;5003432;28;20041;-76
2022/08/02 06:45:52;;;;;;;13.23;8.38;;;;;;;18.21;75.48;101651.44;5003639;28;20010;-76
2022/08/02 06:48:21;;;;;;;14.77;8.30;;;;;;;18.30;76.05;101650.56;5004524;28;20026;-77
2022/08/02 06:50:46;;;;;;;12.20;9.55;;;;;;;18.37;75.37;101650.81;4997096;28;20037;-77
2022/08/02 06:53:11;;;;;;;17.92;10.25;;;;;;;18.46;75.51;101640.16;5004574;28;20364;-78
2022/08/02 06:55:37;;;;;;;13.82;9.80;;;;;;;18.57;75.69;101648.97;4994588;28;20122;-78
2022/08/02 06:58:02;;;;;;;15.48;10.50;;;;;;;18.66;75.81;101645.44;5005125;28;20029;-78
2022/08/02 07:00:29;;;;;;;18.00;10.77;;;;;;;18.79;76.20;101649.44;5002497;28;20494;-78
2022/08/02 07:02:55;;;;;;;19.17;9.95;;;;;;;18.89;75.42;101646.75;4996892;28;20030;-78
2022/08/02 07:05:20;;;;;;;16.10;10.75;;;;;;;19.02;76.33;101649.06;4996027;28;20036;-78
2022/08/02 07:07:46;;;;;;;13.75;10.30;;;;;;;19.23;76.28;101652.34;4995173;28;20018;-78
2022/08/02 07:10:12;;;;;;;15.93;10.07;;;;;;;19.49;74.55;101654.25;4995615;28;20053;-79
2022/08/02 07:12:38;;;;;;;16.20;10.50;;;;;;;19.70;73.75;101653.00;4994627;28;20084;-79
2022/08/02 07:15:06;;;;;;;12.07;9.27;;;;;;;19.86;72.77;101662.13;4999200;28;20435;-78
2022/08/02 07:17:32;;;;;;;16.15;9.35;;;;;;;20.10;71.75;101656.16;4996413;28;20026;-81
2022/08/02 07:19:58;;;;;;;13.10;9.07;;;;;;;20.28;70.54;101647.09;4995895;28;20042;-81
2022/08/02 07:22:25;;;;;;;10.88;8.15;;;;;;;20.38;69.28;101640.81;5005557;28;20030;-81
2022/08/02 07:24:51;;;;;;;13.00;7.85;;;;;;;20.54;69.49;101638.28;5003228;28;20056;-79
2022/08/02 07:27:17;;;;;;;9.75;8.05;;;;;;;20.71;69.72;101633.84;4997964;28;20050;-80
2022/08/02 07:29:42;;;;;;;9.40;7.50;;;;;;;20.79;68.96;101637.38;5004126;28;20076;-80
2022/08/02 07:32:11;;;;;;;11.23;7.00;;;;;;;20.83;67.57;101627.22;5006397;28;20126;-80
2022/08/02 07:34:36;;;;;;;9.52;6.45;;;;;;;20.93;67.38;101631.44;4994212;28;20088;-80
2022/08/02 07:37:02;;;;;;;10.23;6.00;;;;;;;21.05;67.04;101634.66;4988381;28;20022;-80
2022/08/02 07:39:28;;;;;;;8.75;6.32;;;;;;;21.32;66.82;101630.06;4989641;28;20109;-79
2022/08/02 07:41:53;;;;;;;11.57;6.60;;;;;;;21.52;66.15;101628.75;4990297;28;20180;-82
2022/08/02 07:44:18;;;;;;;6.95;5.85;;;;;;;21.62;65.34;101624.09;4989475;28;20711;-80
2022/08/02 07:46:45;;;;;;;8.05;5.07;;;;;;;21.89;65.31;101621.06;4994713;28;20540;-78
2022/08/02 07:49:10;;;;;;;7.75;5.20;;;;;;;22.09;65.28;101632.31;4993199;28;20117;-79
2022/08/02 07:51:36;;;;;;;7.38;4.97;;;;;;;22.36;63.29;101631.06;4989053;28;20166;-79
2022/08/02 07:54:01;;;;;;;7.22;5.03;;;;;;;22.49;63.18;101631.41;4989476;28;20018;-77
2022/08/02 07:56:27;;;;;;;6.45;4.20;;;;;;;22.71;62.89;101634.31;4995682;28;20381;-78
2022/08/02 07:58:52;;;;;;;7.93;4.50;;;;;;;23.03;60.96;101639.59;4989138;28;20034;-77
2022/08/02 08:01:19;;;;;;;4.75;3.75;;;;;;;23.23;60.75;101636.47;4987741;28;20437;-77
2022/08/02 08:03:44;;;;;;;5.30;3.50;;;;;;;23.36;61.00;101634.88;4990375;28;20142;-78
2022/08/02 08:06:10;;;;;;;7.68;4.05;;;;;;;23.60;59.50;101630.34;4994659;28;20069;-77
2022/08/02 08:08:35;;;;;;;6.65;3.83;;;;;;;23.71;58.57;101630.78;4993355;28;20687;-79
2022/08/02 08:11:00;;;;;;;6.70;3.10;;;;;;;23.95;58.82;101631.59;4991846;28;20038;-79
2022/08/02 08:13:26;;;;;;;6.32;3.47;;;;;;;23.86;56.85;101630.81;4992008;28;20026;-83
2022/08/02 08:15:51;;;;;;;7.18;3.30;;;;;;;23.77;56.23;101641.84;4994064;28;20026;-80
2022/08/02 08:18:16;;;;;;;5.90;2.60;;;;;;;23.91;56.55;101633.81;4992973;28;20097;-81
2022/08/02 08:20:42;;;;;;;3.58;2.65;;;;;;;23.75;55.65;101633.94;4992797;28;20028;-80
2022/08/02 08:23:07;;;;;;;5.20;2.80;;;;;;;23.88;54.45;101636.03;5004907;28;20021;-80
2022/08/02 08:25:33;;;;;;;5.00;3.10;;;;;;;23.94;55.18;101632.59;5004917;28;20410;-80
2022/08/02 08:27:58;;;;;;;3.17;2.70;;;;;;;24.16;55.67;101623.66;5000590;28;20065;-80
2022/08/02 08:30:23;;;;;;;3.20;2.53;;;;;;;24.25;55.47;101614.47;4999787;28;20030;-78
2022/08/02 08:32:52;;;;;;;6.65;2.83;;;;;;;24.51;53.04;101610.53;4999444;28;20092;-78
2022/08/02 08:35:17;;;;;;;5.47;2.30;;;;;;;24.63;54.61;101611.75;4992815;28;20037;-79
2022/08/02 08:37:43;;;;;;;5.15;2.40;;;;;;;24.72;52.74;101613.31;4991521;28;20038;-79
2022/08/02 08:40:10;;;;;;;4.82;2.50;;;;;;;24.72;51.75;101616.00;4992689;28;20109;-77
2022/08/02 08:42:37;;;;;;;4.70;2.60;;;;;;;24.69;51.94;101617.19;4999471;28;20030;-76
2022/08/02 08:45:04;;;;;;;12.90;2.70;;;;;;;24.93;52.02;101616.06;4993147;28;20041;-79
2022/08/02 08:47:35;;;;;;;7.85;2.50;;;;;;;25.01;51.81;101625.09;4990240;28;20030;-80
2022/08/02 08:50:10;;;;;;;3.08;2.05;;;;;;;25.18;50.23;101621.13;4991965;28;20034;-75
2022/08/02 08:52:42;;;;;;;3.72;1.90;;;;;;;25.08;48.62;101626.00;4992607;28;20030;-76
2022/08/02 08:55:11;;;;;;;3.25;1.88;;;;;;;25.13;49.75;101629.78;4992222;28;20037;-76
2022/08/02 08:57:41;;;;;;;3.80;2.03;;;;;;;25.14;48.06;101617.16;5000542;28;20026;-76
2022/08/02 09:00:07;;;;;;;3.53;1.70;;;;;;;25.17;47.60;101614.91;5002994;28;20120;-75
2022/08/02 09:02:36;;;;;;;2.47;1.70;;;;;;;25.09;47.47;101611.50;5009999;28;20061;-76
2022/08/02 09:05:01;;;;;;;2.92;1.67;;;;;;;25.14;47.02;101619.84;4993449;28;20069;-76
2022/08/02 09:07:27;;;;;;;3.83;1.55;;;;;;;25.16;46.33;101617.78;5009082;28;20069;-75
2022/08/02 09:09:53;;;;;;;4.72;1.60;;;;;;;25.11;45.52;101628.31;5009903;28;20387;-76
2022/08/02 09:12:23;;;;;;;5.30;1.70;;;;;;;25.03;45.95;101623.03;5010908;28;20045;-76
2022/08/02 09:14:49;;;;;;;4.93;1.65;;;;;;;24.96;45.93;101618.38;5011464;28;20033;-77
2022/08/02 09:17:15;;;;;;;3.67;1.67;;;;;;;25.09;45.86;101611.50;5010175;28;20030;-77
2022/08/02 09:19:40;;;;;;;2.65;1.90;;;;;;;25.28;45.70;101613.59;5011359;28;20761;-76
2022/08/02 09:22:09;;;;;;;1.90;1.60;;;;;;;25.26;45.28;101611.09;5011825;28;20483;-77
2022/08/02 09:24:49;;;;;;;3.30;1.75;;;;;;;25.39;47.34;101607.69;5009560;28;20392;-76
2022/08/02 09:27:20;;;;;;;4.57;1.60;;;;;;;25.54;44.64;101621.91;5010926;28;20518;-76
2022/08/02 09:29:47;;;;;;;3.42;1.45;;;;;;;25.54;42.73;101611.13;4991418;28;20117;-76
2022/08/02 09:32:15;;;;;;;4.40;1.40;;;;;;;25.69;42.67;101612.97;4992716;28;20026;-76
2022/08/02 09:34:51;;;;;;;2.47;1.85;;;;;;;25.77;43.90;101610.16;5011232;28;20026;-76
2022/08/02 09:37:25;;;;;;;2.15;1.48;;;;;;;25.85;42.12;101612.69;5010477;28;20033;-75
2022/08/02 09:39:51;;;;;;;4.45;1.80;;;;;;;25.68;42.17;101614.00;4993638;28;20033;-75
2022/08/02 09:42:17;;;;;;;5.07;1.45;;;;;;;25.72;43.17;101608.03;5010875;28;20030;-75
2022/08/02 09:44:57;;;;;;;1.80;1.40;;;;;;;25.85;43.80;101615.38;5009368;28;20088;-75
2022/08/02 09:47:24;;;;;;;4.35;1.50;;;;;;;25.87;41.91;101610.63;5009052;28;20033;-75
2022/08/02 09:49:52;;;;;;;5.75;1.50;;;;;;;25.88;41.17;101617.69;5011532;28;20037;-75
2022/08/02 09:52:30;;;;;;;2.92;1.17;;;;;;;25.98;42.42;101620.88;5010469;28;20037;-75
2022/08/02 09:55:05;;;;;;;3.78;1.70;;;;;;;25.86;41.54;101620.59;5011797;28;20022;-76
2022/08/02 09:57:32;;;;;;;4.55;1.70;;;;;;;25.94;41.50;101611.50;5010999;28;20105;-76
2022/08/02 09:59:58;;;;;;;1.63;1.17;;;;;;;26.00;40.68;101616.13;5011167;28;20064;-75
2022/08/02 10:02:24;;;;;;;3.47;1.40;;;;;;;26.10;41.79;101608.53;5011065;28;20034;-75
2022/08/02 10:04:50;;;;;;;3.78;1.20;;;;;;;26.16;40.89;101610.44;5009902;28;20137;-76
2022/08/02 10:07:16;;;;;;;3.50;1.38;;;;;;;26.47;41.38;101607.34;5009984;28;20132;-76
2022/08/02 10:09:44;;;;;;;1.65;1.17;;;;;;;26.68;41.39;101603.69;5011389;28;20025;-76
2022/08/02 10:12:10;;;;;;;4.13;1.10;;;;;;;27.00;39.70;101601.38;5010152;28;20030;-76
2022/08/02 10:14:36;;;;;;;2.90;1.30;;;;;;;27.16;41.23;101606.38;5011258;28;20025;-75
2022/08/02 10:17:03;;;;;;;1.27;0.90;;;;;;;27.38;38.95;101607.06;5011400;28;20542;-75
2022/08/02 10:19:29;;;;;;;2.63;1.27;;;;;;;27.52;37.88;101605.22;5010138;28;20113;-75
2022/08/02 10:21:57;;;;;;;5.25;1.00;;;;;;;27.46;38.05;101598.75;5011142;28;20508;-75
2022/08/02 10:24:27;;;;;;;3.08;1.00;;;;;;;27.40;36.18;101597.72;5010543;28;20030;-76
2022/08/02 10:26:53;;;;;;;2.15;1.17;;;;;;;27.30;36.35;101591.06;4991970;28;20053;-76
2022/08/02 10:29:29;;;;;;;3.92;1.20;;;;;;;27.39;36.60;101590.66;4991540;28;20516;-76
2022/08/02 10:32:05;;;;;;;3.80;1.05;;;;;;;27.58;36.99;101588.16;4989285;28;20034;-76
2022/08/02 10:34:39;;;;;;;1.83;0.85;;;;;;;27.64;37.05;101592.78;5009233;28;20021;-76
2022/08/02 10:37:07;;;;;;;1.88;1.05;;;;;;;27.52;37.01;101584.41;5009186;28;20018;-76
2022/08/02 10:39:43;;;;;;;3.60;1.00;;;;;;;27.54;36.70;101586.91;5009737;28;20030;-76
2022/08/02 10:42:10;;;;;;;1.63;1.00;;;;;;;27.41;36.72;101588.56;5007860;28;20049;-76
2022/08/02 10:44:36;;;;;;;3.70;1.00;;;;;;;27.20;36.63;101591.44;5009999;28;20030;-76
2022/08/02 10:47:15;;;;;;;2.80;1.25;;;;;;;27.20;38.14;101591.44;5009398;28;20065;-76
2022/08/02 10:49:57;;;;;;;2.75;0.70;;;;;;;27.02;37.30;101592.03;5009848;28;20092;-76
2022/08/02 10:52:23;;;;;;;14.13;1.80;;;;;;;26.91;38.05;101587.19;5009439;28;20085;-76
2022/08/02 10:55:08;;;;;;;1.35;1.00;;;;;;;26.98;36.66;101593.47;5008256;28;20276;-76
2022/08/02 10:57:36;;;;;;;2.75;0.70;;;;;;;27.21;36.27;101593.09;5008118;28;20033;-76
2022/08/02 11:00:24;;;;;;;2.35;0.93;;;;;;;27.36;35.64;101582.94;5008669;28;20049;-76
2022/08/02 11:02:50;;;;;;;1.33;0.80;;;;;;;27.47;34.00;101586.91;5008193;28;20407;-75
2022/08/02 11:05:36;;;;;;;2.58;0.80;;;;;;;27.70;35.19;101581.97;5009563;28;20056;-75
2022/08/02 11:08:21;;;;;;;3.28;0.88;;;;;;;27.86;35.46;101586.13;5008770;28;20038;-76
2022/08/02 11:10:47;;;;;;;2.22;0.90;;;;;;;27.85;33.41;101595.28;5008831;28;20163;-75
2022/08/02 11:13:14;;;;;;;3.50;0.82;;;;;;;27.97;34.47;101582.75;5009820;28;20025;-75
2022/08/02 11:16:00;;;;;;;1.98;0.70;;;;;;;28.15;35.37;101587.53;5008418;28;20117;-75
2022/08/02 11:18:50;;;;;;;1.80;0.88;;;;;;;28.26;34.87;101570.66;5008464;28;20030;-75
2022/08/02 11:21:23;;;;;;;2.92;0.98;;;;;;;28.31;34.39;101576.28;5009980;28;20435;-75
2022/08/02 11:23:49;;;;;;;2.92;0.80;;;;;;;28.51;34.29;101573.53;5009842;28;20029;-75
2022/08/02 11:26:29;;;;;;;2.72;0.80;;;;;;;28.62;33.67;101575.56;5008753;28;20026;-76
2022/08/02 11:28:59;;;;;;;1.63;0.90;;;;;;;28.38;32.98;101570.84;4996829;28;20057;-75
2022/08/02 11:31:26;;;;;;;1.05;0.80;;;;;;;28.34;32.13;101573.13;4989240;28;20065;-75
2022/08/02 11:33:52;;;;;;;4.53;0.90;;;;;;;28.18;31.62;101578.16;5006481;28;20387;-75